Time;durP1;ratioP1;P1;durP2;ratioP2;P2;SDS_P1;SDS_P2;PMS_P1;PMS_P2;Temp;Humidity;BMP_temperature;BMP_pressure;BME280_temperature;BME280_humidity;BME280_pressure;Samples;Min_cycle;Max_cycle;Signal;HPM_P1;HPM_P2
2022/09/09 00:00:44;;;;;;;22.92;8.95;;;15.70;99.90;;;;;;5014085;28;20202;-57
2022/09/09 00:03:37;;;;;;;23.40;9.95;;;15.70;99.90;;;;;;5013887;28;20201;-55
2022/09/09 00:06:13;;;;;;;21.38;8.82;;;15.70;99.90;;;;;;5014122;28;20250;-55
2022/09/09 00:08:57;;;;;;;15.60;7.45;;;15.80;99.90;;;;;;5013867;28;20171;-55
2022/09/09 00:11:36;;;;;;;11.38;7.05;;;15.80;99.90;;;;;;5014165;28;20181;-55
2022/09/09 00:14:08;;;;;;;15.43;7.03;;;15.80;99.90;;;;;;5013761;28;20540;-55
2022/09/09 00:16:40;;;;;;;14.07;6.03;;;15.80;99.90;;;;;;5014036;28;20246;-55
2022/09/09 00:19:45;;;;;;;14.00;5.60;;;15.80;99.90;;;;;;5013651;28;20264;-56
2022/09/09 00:22:23;;;;;;;20.65;7.43;;;15.70;99.90;;;;;;5013626;28;20178;-55
2022/09/09 00:24:54;;;;;;;17.42;6.35;;;15.70;99.90;;;;;;5013408;28;20190;-56
2022/09/09 00:27:29;;;;;;;17.40;6.75;;;15.70;99.90;;;;;;5013369;28;20507;-55
2022/09/09 00:30:01;;;;;;;17.27;6.47;;;15.70;99.90;;;;;;5013453;28;20171;-55
2022/09/09 00:32:32;;;;;;;17.40;5.95;;;15.70;99.90;;;;;;5013373;28;20163;-56
2022/09/09 00:35:15;;;;;;;19.98;4.80;;;15.60;99.90;;;;;;5013256;28;20673;-55
2022/09/09 00:37:41;;;;;;;12.75;4.40;;;15.60;99.90;;;;;;5013219;28;20225;-55
2022/09/09 00:40:32;;;;;;;11.65;4.00;;;15.40;99.90;;;;;;5013183;28;20298;-56
2022/09/09 00:43:18;;;;;;;8.48;4.28;;;15.60;99.90;;;;;;5013219;28;20190;-55
2022/09/09 00:45:53;;;;;;;11.27;4.18;;;18.40;99.90;;;;;;5013139;28;20633;-56
2022/09/09 00:48:24;;;;;;;11.43;3.42;;;15.50;99.90;;;;;;5012941;28;20167;-55
2022/09/09 00:50:53;;;;;;;9.57;3.45;;;15.50;99.90;;;;;;5012899;28;20171;-54
2022/09/09 00:53:34;;;;;;;13.88;3.45;;;15.50;99.90;;;;;;5012985;28;20170;-55
2022/09/09 00:56:12;;;;;;;7.82;3.47;;;15.50;99.90;;;;;;5013171;28;20186;-57
2022/09/09 00:58:37;;;;;;;6.50;3.15;;;15.50;99.90;;;;;;5011466;28;20222;-55
2022/09/09 01:01:12;;;;;;;12.38;3.10;;;15.50;99.90;;;;;;5012927;28;20190;-55
2022/09/09 01:03:49;;;;;;;8.95;2.95;;;15.40;99.90;;;;;;5012733;28;20174;-55
2022/09/09 01:06:14;;;;;;;12.82;2.88;;;15.40;99.90;;;;;;5012770;28;20220;-55
2022/09/09 01:09:01;;;;;;;7.32;3.03;;;15.40;99.90;;;;;;5012850;28;20179;-55
2022/09/09 01:11:42;;;;;;;9.77;2.92;;;15.40;99.90;;;;;;5012671;28;20716;-55
2022/09/09 01:14:42;;;;;;;10.95;2.75;;;15.40;99.90;;;;;;5012639;28;20236;-56
2022/09/09 01:17:27;;;;;;;10.02;2.88;;;15.40;99.90;;;;;;5012585;28;20221;-55
2022/09/09 01:20:25;;;;;;;12.73;3.20;;;15.30;99.90;;;;;;5012474;28;20252;-55
2022/09/09 01:22:59;;;;;;;6.82;2.85;;;15.20;99.90;;;;;;5012559;28;20174;-56
2022/09/09 01:25:43;;;;;;;6.95;3.03;;;15.20;99.90;;;;;;5012400;28;20232;-55
2022/09/09 01:28:16;;;;;;;14.20;2.80;;;14.80;99.90;;;;;;5012291;28;20166;-55
2022/09/09 01:30:42;;;;;;;8.88;2.55;;;15.10;99.90;;;;;;5012250;28;20557;-56
2022/09/09 01:33:14;;;;;;;9.68;2.58;;;15.10;99.90;;;;;;5012232;28;20171;-56
2022/09/09 01:35:55;;;;;;;5.70;2.33;;;14.70;99.90;;;;;;5012237;28;20269;-57
2022/09/09 01:38:22;;;;;;;9.25;2.50;;;14.40;99.90;;;;;;5012106;28;20257;-55
2022/09/09 01:40:49;;;;;;;12.35;2.78;;;14.90;99.90;;;;;;5012057;28;20321;-56
2022/09/09 01:43:15;;;;;;;13.40;2.70;;;14.90;99.90;;;;;;5012015;28;20249;-55
2022/09/09 01:45:42;;;;;;;8.32;2.65;;;14.90;99.90;;;;;;5015264;28;20617;-56
2022/09/09 01:48:08;;;;;;;7.65;2.40;;;14.80;99.90;;;;;;5012194;28;20186;-56
2022/09/09 01:50:33;;;;;;;8.52;3.10;;;14.80;99.90;;;;;;5012389;28;20174;-57
2022/09/09 01:53:01;;;;;;;12.40;2.47;;;14.80;99.90;;;;;;5012077;28;20167;-56
2022/09/09 01:55:37;;;;;;;11.25;2.78;;;14.80;99.90;;;;;;5011941;28;20178;-57
2022/09/09 01:58:08;;;;;;;8.48;2.72;;;14.80;99.90;;;;;;5012066;28;20212;-56
2022/09/09 02:00:39;;;;;;;10.50;2.90;;;14.80;99.90;;;;;;5010957;28;20256;-56
2022/09/09 02:03:25;;;;;;;6.60;2.65;;;14.80;99.90;;;;;;5011846;28;20174;-56
2022/09/09 02:06:03;;;;;;;10.10;2.33;;;14.80;99.90;;;;;;5011742;28;20174;-56
2022/09/09 02:08:43;;;;;;;5.72;2.38;;;14.80;99.90;;;;;;5011770;28;20198;-55
2022/09/09 02:11:17;;;;;;;9.02;2.38;;;14.80;99.90;;;;;;5011548;28;20677;-55
2022/09/09 02:13:48;;;;;;;11.65;2.22;;;14.90;99.90;;;;;;5011679;28;20257;-56
2022/09/09 02:16:23;;;;;;;7.65;2.17;;;14.90;99.90;;;;;;5011598;28;20178;-56
2022/09/09 02:18:54;;;;;;;5.68;2.25;;;15.00;99.90;;;;;;5011502;28;20212;-58
2022/09/09 02:21:22;;;;;;;7.72;2.28;;;14.90;99.90;;;;;;5011757;28;20202;-55
2022/09/09 02:23:51;;;;;;;6.93;2.28;;;15.00;99.90;;;;;;5011489;28;20175;-55
2022/09/09 02:26:21;;;;;;;8.27;2.47;;;15.00;99.90;;;;;;5011412;28;20177;-55
2022/09/09 02:28:49;;;;;;;6.07;2.08;;;15.00;99.90;;;;;;5011392;28;20186;-55
2022/09/09 02:31:19;;;;;;;7.32;2.05;;;14.80;99.90;;;;;;5011295;28;20285;-56
2022/09/09 02:33:52;;;;;;;7.72;1.80;;;15.10;99.90;;;;;;5011565;28;20175;-55
2022/09/09 02:36:21;;;;;;;12.30;2.45;;;15.10;99.90;;;;;;5011273;28;20950;-55
2022/09/09 02:38:52;;;;;;;8.82;2.25;;;15.00;99.90;;;;;;5011214;28;20779;-55
2022/09/09 02:41:25;;;;;;;8.43;2.33;;;15.10;99.90;;;;;;5011008;28;20222;-55
2022/09/09 02:43:51;;;;;;;7.35;2.10;;;15.10;99.90;;;;;;5010066;28;20174;-57
2022/09/09 02:46:16;;;;;;;6.97;2.53;;;15.10;99.90;;;;;;5011120;28;20186;-56
2022/09/09 02:49:14;;;;;;;7.53;2.28;;;15.10;99.90;;;;;;5011100;28;20166;-56
2022/09/09 02:51:43;;;;;;;8.13;2.10;;;14.70;99.90;;;;;;4975341;28;20198;-56
2022/09/09 02:54:30;;;;;;;13.63;2.92;;;15.20;99.90;;;;;;5011044;28;20270;-56
2022/09/09 02:57:11;;;;;;;8.93;2.20;;;15.10;99.90;;;;;;5010893;28;20265;-55
2022/09/09 02:59:37;;;;;;;4.22;2.15;;;14.70;99.90;;;;;;5011029;28;20193;-55
2022/09/09 03:02:03;;;;;;;11.25;2.30;;;15.10;99.90;;;;;;5010903;28;20196;-55
2022/09/09 03:04:30;;;;;;;5.22;2.00;;;15.20;99.90;;;;;;5010935;28;20264;-55
2022/09/09 03:06:58;;;;;;;6.13;2.10;;;15.10;99.90;;;;;;5010965;28;20641;-57
2022/09/09 03:09:24;;;;;;;5.90;1.88;;;15.00;99.90;;;;;;5011054;28;20178;-54
2022/09/09 03:11:50;;;;;;;5.10;1.90;;;15.20;99.90;;;;;;5011335;28;20217;-55
2022/09/09 03:14:16;;;;;;;6.68;1.73;;;15.20;99.90;;;;;;5014900;28;20178;-56
2022/09/09 03:16:42;;;;;;;7.05;2.20;;;14.40;99.90;;;;;;5014639;28;20545;-55
2022/09/09 03:19:09;;;;;;;4.53;2.15;;;15.50;99.90;;;;;;5014673;28;20649;-55
2022/09/09 03:21:35;;;;;;;5.15;2.20;;;15.20;99.90;;;;;;5014694;28;20178;-55
2022/09/09 03:24:03;;;;;;;8.27;2.13;;;15.00;99.90;;;;;;5014866;28;20174;-56
2022/09/09 03:26:30;;;;;;;5.63;2.20;;;15.10;99.90;;;;;;5014685;28;20653;-56
2022/09/09 03:28:56;;;;;;;7.00;1.98;;;15.20;99.90;;;;;;5014569;28;20175;-55
2022/09/09 03:31:21;;;;;;;5.88;2.28;;;15.10;99.90;;;;;;5014720;28;20616;-55
2022/09/09 03:33:47;;;;;;;3.83;2.00;;;15.20;99.90;;;;;;5014620;28;20537;-55
2022/09/09 03:36:14;;;;;;;6.20;1.55;;;15.40;99.90;;;;;;5014420;28;20247;-55
2022/09/09 03:38:41;;;;;;;4.32;1.70;;;15.20;99.90;;;;;;5014485;28;20221;-55
2022/09/09 03:41:07;;;;;;;5.90;1.50;;;15.20;99.90;;;;;;5014196;28;20222;-56
2022/09/09 03:43:33;;;;;;;5.05;2.08;;;15.20;99.90;;;;;;5014370;28;20183;-55
2022/09/09 03:45:59;;;;;;;7.95;2.22;;;15.00;99.90;;;;;;5017350;28;20182;-55
2022/09/09 03:48:27;;;;;;;4.90;1.95;;;15.20;99.90;;;;;;5014218;28;20171;-55
2022/09/09 03:50:55;;;;;;;7.30;2.05;;;15.20;99.90;;;;;;5014187;28;20700;-58
2022/09/09 03:53:24;;;;;;;9.00;2.70;;;15.00;99.90;;;;;;5014081;28;20645;-55
2022/09/09 03:55:54;;;;;;;5.85;1.80;;;15.40;99.90;;;;;;5014264;28;20224;-56
2022/09/09 03:58:21;;;;;;;5.68;1.83;;;15.20;99.90;;;;;;5013977;28;20218;-56
2022/09/09 04:00:58;;;;;;;7.70;1.98;;;14.90;99.90;;;;;;5013889;28;20173;-55
2022/09/09 04:03:24;;;;;;;11.30;1.98;;;15.10;99.90;;;;;;5013946;28;20210;-55
2022/09/09 04:05:54;;;;;;;6.05;1.92;;;15.20;99.90;;;;;;5013898;28;20197;-56
2022/09/09 04:08:21;;;;;;;5.20;1.73;;;15.20;99.90;;;;;;5013873;28;20187;-56
2022/09/09 04:10:48;;;;;;;5.50;1.70;;;15.20;99.90;;;;;;5013911;28;20178;-57
2022/09/09 04:13:17;;;;;;;3.47;1.95;;;15.30;99.90;;;;;;5013796;28;20185;-55
2022/09/09 04:15:44;;;;;;;9.18;1.77;;;15.20;99.90;;;;;;5013948;28;20249;-55
2022/09/09 04:18:11;;;;;;;4.28;1.63;;;15.20;99.90;;;;;;5013771;28;20218;-56
2022/09/09 04:20:37;;;;;;;5.38;1.48;;;15.10;99.90;;;;;;5013647;28;20174;-55
2022/09/09 04:23:04;;;;;;;5.47;1.83;;;15.20;99.90;;;;;;5013422;28;20167;-55
2022/09/09 04:25:30;;;;;;;7.18;1.70;;;;;;;;;;5012717;28;20202;-55
2022/09/09 04:27:57;;;;;;;5.68;2.00;;;15.20;99.90;;;;;;5013600;28;20167;-55
2022/09/09 04:30:23;;;;;;;12.23;1.60;;;15.00;99.90;;;;;;5013375;28;20673;-55
2022/09/09 04:32:48;;;;;;;7.28;1.75;;;15.20;99.90;;;;;;5013383;28;20182;-55
2022/09/09 04:35:14;;;;;;;5.32;1.83;;;15.30;99.90;;;;;;5013247;28;20638;-55
2022/09/09 04:37:40;;;;;;;6.40;1.67;;;;;;;;;;5013300;28;20206;-55
2022/09/09 04:40:09;;;;;;;3.33;1.45;;;15.30;99.90;;;;;;5013365;28;20210;-55
2022/09/09 04:42:39;;;;;;;6.65;1.80;;;15.30;99.90;;;;;;5013196;28;20233;-57
2022/09/09 04:45:06;;;;;;;3.40;1.48;;;15.30;99.90;;;;;;5013105;28;20179;-56
2022/09/09 04:47:32;;;;;;;3.25;1.27;;;15.60;99.90;;;;;;5013320;28;20179;-57
2022/09/09 04:49:58;;;;;;;11.60;1.63;;;15.30;99.90;;;;;;5013119;28;20187;-56
2022/09/09 04:52:23;;;;;;;5.13;1.27;;;15.50;99.90;;;;;;5013011;28;20707;-56
2022/09/09 04:54:49;;;;;;;5.50;1.70;;;15.30;99.90;;;;;;5013111;28;20261;-57
2022/09/09 04:57:15;;;;;;;5.40;1.27;;;15.30;99.90;;;;;;5015728;28;20561;-57
2022/09/09 04:59:41;;;;;;;7.05;1.42;;;15.40;99.90;;;;;;5012853;28;20174;-56
2022/09/09 05:02:07;;;;;;;9.18;1.52;;;;;;;;;;5012869;28;20167;-56
2022/09/09 05:04:33;;;;;;;4.78;1.38;;;;;;;;;;5012620;28;20174;-57
2022/09/09 05:06:59;;;;;;;8.98;1.60;;;15.30;99.90;;;;;;5012801;28;20182;-56
2022/09/09 05:09:24;;;;;;;5.15;1.10;;;15.30;99.90;;;;;;5012667;28;20221;-56
2022/09/09 05:11:51;;;;;;;5.28;1.52;;;;;;;;;;5012701;28;20642;-56
2022/09/09 05:14:17;;;;;;;3.72;1.30;;;15.50;99.90;;;;;;5012849;28;20174;-56
2022/09/09 05:16:44;;;;;;;6.18;1.10;;;15.40;99.90;;;;;;5011445;28;20186;-56
2022/09/09 05:19:11;;;;;;;4.38;1.30;;;15.40;99.90;;;;;;5012551;28;20230;-55
2022/09/09 05:21:36;;;;;;;9.93;1.25;;;15.50;99.90;;;;;;5012559;28;20252;-57
2022/09/09 05:24:02;;;;;;;2.92;1.00;;;;;;;;;;5012347;28;20218;-56
2022/09/09 05:26:29;;;;;;;9.07;1.67;;;15.20;99.90;;;;;;5012618;28;20175;-55
2022/09/09 05:28:55;;;;;;;5.40;1.13;;;15.50;99.90;;;;;;5012532;28;20186;-55
2022/09/09 05:31:21;;;;;;;5.20;1.10;;;15.00;99.90;;;;;;5012502;28;20167;-55
2022/09/09 05:33:49;;;;;;;6.65;1.42;;;15.30;99.90;;;;;;5012304;28;20170;-56
2022/09/09 05:36:20;;;;;;;6.57;1.42;;;15.50;99.90;;;;;;5012206;28;20181;-56
2022/09/09 05:38:46;;;;;;;6.55;1.00;;;15.30;99.90;;;;;;5012320;28;20239;-56
2022/09/09 05:41:15;;;;;;;9.98;1.35;;;15.40;99.90;;;;;;5011946;28;20309;-56
2022/09/09 05:43:43;;;;;;;9.60;1.42;;;15.30;99.90;;;;;;5012257;28;20186;-55
2022/09/09 05:46:11;;;;;;;9.25;1.38;;;15.20;99.90;;;;;;5012025;28;20171;-56
2022/09/09 05:48:42;;;;;;;6.53;1.23;;;15.20;99.90;;;;;;5012099;28;20322;-56
2022/09/09 05:51:12;;;;;;;6.90;1.10;;;15.20;99.90;;;;;;5012009;28;20175;-56
2022/09/09 05:53:39;;;;;;;8.98;1.23;;;15.30;99.90;;;;;;5012185;28;20178;-56
2022/09/09 05:56:07;;;;;;;5.85;1.13;;;15.50;99.90;;;;;;5012007;28;20510;-55
2022/09/09 05:58:34;;;;;;;4.55;1.20;;;15.50;99.90;;;;;;5011787;28;20226;-56
2022/09/09 06:01:06;;;;;;;8.00;1.23;;;15.40;99.90;;;;;;5010451;28;20657;-56
2022/09/09 06:03:33;;;;;;;5.15;1.55;;;15.40;99.90;;;;;;5011661;28;20182;-56
2022/09/09 06:06:00;;;;;;;7.13;1.42;;;15.40;99.90;;;;;;5011948;28;20604;-56
2022/09/09 06:08:26;;;;;;;5.63;1.17;;;15.40;99.90;;;;;;5010463;28;20190;-57
2022/09/09 06:10:52;;;;;;;7.03;1.33;;;;;;;;;;5011601;28;20175;-57
2022/09/09 06:13:18;;;;;;;10.98;1.23;;;15.50;99.90;;;;;;5011670;28;20185;-56
2022/09/09 06:15:51;;;;;;;10.02;1.58;;;15.40;99.90;;;;;;5011727;28;20171;-57
2022/09/09 06:18:18;;;;;;;8.07;1.73;;;15.60;99.90;;;;;;5011292;28;20214;-56
2022/09/09 06:20:57;;;;;;;6.50;1.35;;;15.40;99.90;;;;;;5011497;28;20162;-57
2022/09/09 06:23:23;;;;;;;6.05;1.25;;;15.70;99.90;;;;;;5011403;28;20665;-56
2022/09/09 06:25:48;;;;;;;13.98;1.73;;;15.80;99.90;;;;;;5011295;28;20185;-55
2022/09/09 06:28:15;;;;;;;5.85;1.20;;;15.70;99.90;;;;;;5011366;28;20274;-56
2022/09/09 06:30:42;;;;;;;3.05;1.08;;;15.50;99.90;;;;;;5011290;28;20233;-55
2022/09/09 06:33:09;;;;;;;7.97;1.27;;;15.60;99.90;;;;;;5011240;28;20189;-56
2022/09/09 06:35:35;;;;;;;10.43;2.42;;;15.70;99.90;;;;;;5011193;28;20588;-55
2022/09/09 06:38:00;;;;;;;9.50;1.33;;;15.70;99.90;;;;;;5011141;28;20210;-57
2022/09/09 06:40:26;;;;;;;8.75;1.42;;;;;;;;;;5011031;28;20222;-56
2022/09/09 06:42:52;;;;;;;5.90;1.63;;;16.00;99.90;;;;;;5011109;28;20206;-62
2022/09/09 06:45:18;;;;;;;10.18;1.70;;;;;;;;;;5011122;28;20237;-56
2022/09/09 06:47:44;;;;;;;13.63;1.80;;;15.60;99.90;;;;;;5010757;28;20181;-56
2022/09/09 06:50:10;;;;;;;6.15;1.58;;;16.10;99.90;;;;;;5011298;28;20170;-56
2022/09/09 06:52:36;;;;;;;13.50;1.83;;;15.60;99.90;;;;;;5010012;28;20209;-56
2022/09/09 06:55:03;;;;;;;11.15;1.38;;;15.80;99.90;;;;;;5011109;28;20269;-57
2022/09/09 06:57:29;;;;;;;9.05;1.70;;;16.00;99.90;;;;;;5010561;28;20725;-57
2022/09/09 06:59:55;;;;;;;7.05;1.45;;;16.50;99.90;;;;;;5014379;28;20210;-56
2022/09/09 07:02:21;;;;;;;7.35;1.73;;;16.10;99.90;;;;;;5011102;28;20174;-56
2022/09/09 07:04:47;;;;;;;10.80;1.48;;;16.20;99.90;;;;;;5010908;28;20179;-57
2022/09/09 07:07:15;;;;;;;7.38;1.50;;;;;;;;;;5010947;28;20182;-57
2022/09/09 07:09:40;;;;;;;7.47;1.60;;;16.20;99.90;;;;;;5010768;28;20641;-57
2022/09/09 07:12:06;;;;;;;10.13;1.83;;;16.40;99.90;;;;;;5010995;28;20171;-56
2022/09/09 07:14:33;;;;;;;11.02;1.65;;;;;;;;;;5010920;28;20645;-57
2022/09/09 07:17:00;;;;;;;6.82;1.60;;;;;;;;;;5011138;28;20179;-57
2022/09/09 07:19:26;;;;;;;4.72;1.20;;;16.50;99.90;;;;;;5009790;28;20214;-57
2022/09/09 07:21:51;;;;;;;7.22;1.48;;;16.50;99.90;;;;;;5010844;28;20579;-56
2022/09/09 07:24:17;;;;;;;12.93;1.70;;;16.70;99.90;;;;;;5010924;28;20171;-57
2022/09/09 07:26:46;;;;;;;6.57;1.33;;;;;;;;;;5010723;28;20205;-57
2022/09/09 07:29:15;;;;;;;4.65;1.55;;;16.90;99.90;;;;;;5010720;28;20252;-57
2022/09/09 07:31:42;;;;;;;9.43;2.45;;;17.60;99.90;;;;;;5010905;28;20179;-56
2022/09/09 07:34:08;;;;;;;7.07;1.65;;;17.20;99.90;;;;;;5010915;28;20178;-55
2022/09/09 07:36:39;;;;;;;7.32;1.60;;;16.90;99.90;;;;;;5010727;28;20179;-56
2022/09/09 07:39:09;;;;;;;9.13;1.83;;;17.10;99.90;;;;;;5010537;28;20292;-56
2022/09/09 07:41:37;;;;;;;10.18;1.80;;;17.00;99.90;;;;;;5009067;28;20222;-57
2022/09/09 07:44:16;;;;;;;4.07;1.45;;;17.10;99.90;;;;;;5010838;28;20187;-56
2022/09/09 07:46:42;;;;;;;4.03;1.33;;;17.00;99.90;;;;;;5010701;28;20178;-55
2022/09/09 07:49:09;;;;;;;4.63;1.20;;;17.00;99.90;;;;;;5010627;28;20210;-57
2022/09/09 07:51:38;;;;;;;3.70;1.10;;;17.00;99.90;;;;;;5010605;28;20162;-57
2022/09/09 07:54:07;;;;;;;4.43;1.27;;;17.00;99.90;;;;;;5010511;28;20206;-56
2022/09/09 07:56:33;;;;;;;4.88;1.25;;;17.10;99.90;;;;;;5010388;28;20171;-56
2022/09/09 07:58:59;;;;;;;5.88;0.88;;;17.10;99.90;;;;;;5011066;28;20206;-56
2022/09/09 08:01:35;;;;;;;12.23;1.58;;;17.10;99.90;;;;;;5013925;28;20250;-56
2022/09/09 08:04:06;;;;;;;3.65;1.15;;;17.50;99.90;;;;;;5014000;28;20201;-57
2022/09/09 08:06:37;;;;;;;5.88;1.20;;;17.70;99.90;;;;;;5013872;28;20170;-57
2022/09/09 08:09:04;;;;;;;8.02;1.50;;;18.20;99.90;;;;;;5013859;28;20170;-55
2022/09/09 08:11:30;;;;;;;5.22;1.33;;;18.60;99.90;;;;;;5013755;28;20181;-55
2022/09/09 08:13:56;;;;;;;7.70;1.52;;;18.60;99.90;;;;;;5013878;28;20175;-55
2022/09/09 08:16:25;;;;;;;4.72;1.00;;;18.60;99.90;;;;;;5013862;28;20182;-56
2022/09/09 08:18:52;;;;;;;2.45;0.90;;;18.40;99.90;;;;;;5014109;28;20222;-54
2022/09/09 08:21:27;;;;;;;7.00;0.90;;;18.50;99.90;;;;;;5013915;28;20270;-55
2022/09/09 08:23:55;;;;;;;3.40;1.00;;;18.60;99.90;;;;;;5013688;28;20185;-55
2022/09/09 08:26:44;;;;;;;5.00;0.95;;;18.40;99.90;;;;;;5013486;28;20178;-55
2022/09/09 08:29:11;;;;;;;2.08;0.73;;;18.30;99.90;;;;;;5013567;28;20529;-55
2022/09/09 08:31:39;;;;;;;2.50;0.50;;;18.20;99.90;;;;;;5013469;28;20233;-55
2022/09/09 08:34:07;;;;;;;5.45;0.90;;;18.20;99.90;;;;;;5013466;28;20672;-55
2022/09/09 08:36:39;;;;;;;4.80;1.00;;;18.20;99.90;;;;;;5013426;28;20175;-55
2022/09/09 08:39:06;;;;;;;5.53;0.73;;;18.20;99.90;;;;;;5013296;28;20213;-56
2022/09/09 08:41:41;;;;;;;4.78;1.08;;;18.00;99.90;;;;;;5013307;28;20302;-56
2022/09/09 08:44:15;;;;;;;7.93;0.70;;;17.90;99.90;;;;;;5013243;28;20192;-56
2022/09/09 08:47:02;;;;;;;6.35;1.42;;;16.30;99.90;;;;;;5013354;28;20169;-55
2022/09/09 08:49:49;;;;;;;3.63;0.90;;;18.00;99.90;;;;;;5013237;28;20181;-56
2022/09/09 08:52:23;;;;;;;1.77;0.55;;;17.80;99.90;;;;;;5013083;28;20182;-56
2022/09/09 08:54:50;;;;;;;2.08;0.80;;;17.60;99.90;;;;;;5013233;28;20179;-56
2022/09/09 08:57:28;;;;;;;3.28;1.02;;;17.70;99.90;;;;;;5013008;28;20209;-56
2022/09/09 08:59:55;;;;;;;2.50;0.60;;;17.80;99.90;;;;;;5016076;28;20633;-56
2022/09/09 09:03:02;;;;;;;3.08;0.70;;;17.80;99.90;;;;;;5013092;28;20186;-56
2022/09/09 09:05:44;;;;;;;0.93;0.50;;;17.60;99.90;;;;;;5007351;28;20186;-56
2022/09/09 09:08:28;;;;;;;1.25;0.60;;;17.80;99.90;;;;;;5012966;28;20249;-56
2022/09/09 09:10:57;;;;;;;3.33;0.70;;;17.70;99.90;;;;;;5012390;28;20224;-56
2022/09/09 09:13:45;;;;;;;2.28;0.65;;;17.80;99.90;;;;;;5013059;28;20182;-58
2022/09/09 09:16:30;;;;;;;1.33;0.60;;;17.50;99.90;;;;;;5012706;28;20170;-56
2022/09/09 09:18:57;;;;;;;2.53;0.63;;;17.90;99.90;;;;;;5012561;28;20214;-57
2022/09/09 09:21:46;;;;;;;4.65;0.90;;;17.40;99.90;;;;;;5012618;28;20224;-57
2022/09/09 09:24:26;;;;;;;3.65;0.82;;;17.30;99.90;;;;;;5012690;28;20209;-57
2022/09/09 09:26:52;;;;;;;2.72;0.70;;;17.40;99.90;;;;;;5012572;28;20193;-57
2022/09/09 09:29:19;;;;;;;2.70;0.80;;;17.60;99.90;;;;;;5012371;28;20171;-55
2022/09/09 09:31:58;;;;;;;6.18;0.73;;;17.00;99.90;;;;;;5012498;28;20171;-56
2022/09/09 09:34:24;;;;;;;1.85;0.68;;;17.40;99.90;;;;;;5012310;28;20166;-56
2022/09/09 09:36:58;;;;;;;5.18;0.70;;;17.40;99.90;;;;;;5012120;28;20167;-56
2022/09/09 09:39:36;;;;;;;5.18;0.63;;;17.30;99.90;;;;;;5010709;28;20600;-56
2022/09/09 09:42:17;;;;;;;2.80;0.57;;;17.60;99.90;;;;;;5012255;28;20167;-56
2022/09/09 09:44:43;;;;;;;4.03;0.70;;;17.40;99.90;;;;;;5011988;28;20178;-55
2022/09/09 09:47:12;;;;;;;2.45;0.75;;;17.40;99.90;;;;;;5012102;28;20696;-56
2022/09/09 09:49:38;;;;;;;1.67;0.75;;;17.40;99.90;;;;;;5012212;28;20585;-56
2022/09/09 09:52:05;;;;;;;1.10;0.70;;;17.60;99.90;;;;;;5012139;28;20171;-56
2022/09/09 09:54:36;;;;;;;2.50;0.80;;;17.60;99.90;;;;;;5012084;28;20182;-56
2022/09/09 09:57:14;;;;;;;3.55;0.63;;;17.70;99.90;;;;;;5011957;28;20195;-56
2022/09/09 09:59:40;;;;;;;1.67;0.70;;;17.70;99.90;;;;;;5012023;28;20175;-57
2022/09/09 10:02:36;;;;;;;2.45;0.80;;;17.70;99.90;;;;;;5011806;28;20213;-55
2022/09/09 10:05:13;;;;;;;5.45;1.05;;;17.60;99.90;;;;;;5011846;28;20685;-57
2022/09/09 10:07:39;;;;;;;4.97;0.73;;;18.00;99.90;;;;;;5011832;28;20261;-57
2022/09/09 10:10:08;;;;;;;3.80;0.90;;;17.70;99.90;;;;;;5011783;28;20690;-57
2022/09/09 10:13:09;;;;;;;3.65;0.77;;;17.80;99.90;;;;;;5011769;28;20637;-56
2022/09/09 10:15:53;;;;;;;1.95;0.60;;;17.60;99.90;;;;;;5011681;28;20248;-56
2022/09/09 10:18:19;;;;;;;2.33;0.68;;;;;;;;;;5011713;28;20250;-56
2022/09/09 10:21:05;;;;;;;3.72;0.90;;;17.80;99.90;;;;;;5011591;28;20178;-56
2022/09/09 10:23:39;;;;;;;2.63;0.63;;;17.30;99.90;;;;;;5011247;28;20178;-57
2022/09/09 10:26:20;;;;;;;2.83;0.70;;;17.40;99.90;;;;;;5011698;28;20169;-57
2022/09/09 10:28:58;;;;;;;4.25;0.88;;;17.40;99.90;;;;;;5011583;28;20220;-57
2022/09/09 10:31:51;;;;;;;1.60;0.80;;;17.50;99.90;;;;;;5011508;28;20170;-56
2022/09/09 10:34:35;;;;;;;0.90;0.70;;;17.50;99.90;;;;;;5011495;28;20179;-56
2022/09/09 10:37:17;;;;;;;3.67;1.00;;;17.80;99.90;;;;;;5011325;28;20660;-57
2022/09/09 10:39:43;;;;;;;5.45;0.82;;;18.10;99.90;;;;;;5011268;28;20233;-56
2022/09/09 10:42:13;;;;;;;2.13;0.70;;;18.30;99.90;;;;;;5011150;28;20177;-56
2022/09/09 10:45:02;;;;;;;3.17;0.90;;;18.30;99.90;;;;;;5011275;28;20249;-57
2022/09/09 10:47:50;;;;;;;3.88;0.88;;;18.20;99.90;;;;;;5011137;28;20170;-56
2022/09/09 10:50:46;;;;;;;5.20;0.90;;;18.10;99.90;;;;;;5011049;28;20185;-57
2022/09/09 10:53:37;;;;;;;5.28;1.10;;;18.10;99.90;;;;;;5011168;28;20182;-56
2022/09/09 10:56:11;;;;;;;7.28;0.93;;;18.50;99.90;;;;;;5011322;28;20186;-57
2022/09/09 10:58:59;;;;;;;6.60;1.00;;;18.50;99.90;;;;;;5011085;28;20688;-57
2022/09/09 11:01:32;;;;;;;2.25;1.20;;;19.00;99.90;;;;;;5013993;28;20190;-54
2022/09/09 11:04:32;;;;;;;3.25;1.10;;;18.80;99.90;;;;;;5010966;28;20236;-56
2022/09/09 11:07:03;;;;;;;3.90;1.20;;;19.00;99.90;;;;;;5010920;28;20668;-56
2022/09/09 11:09:37;;;;;;;6.20;1.55;;;19.20;99.90;;;;;;5011031;28;20193;-56
2022/09/09 11:12:05;;;;;;;3.78;1.13;;;19.10;99.90;;;;;;5010969;28;20197;-55
2022/09/09 11:14:42;;;;;;;6.22;1.40;;;19.10;99.90;;;;;;5011067;28;20166;-56
2022/09/09 11:17:20;;;;;;;7.15;1.30;;;19.50;99.90;;;;;;5010826;28;20257;-57
2022/09/09 11:19:46;;;;;;;4.85;1.25;;;19.80;99.90;;;;;;5010810;28;20232;-56
2022/09/09 11:22:33;;;;;;;8.60;1.52;;;20.70;99.90;;;;;;5009478;28;20225;-55
2022/09/09 11:25:13;;;;;;;6.60;1.33;;;22.20;99.90;;;;;;5010973;28;20178;-57
2022/09/09 11:27:55;;;;;;;4.38;1.40;;;22.40;99.90;;;;;;5010996;28;20193;-55
2022/09/09 11:30:32;;;;;;;6.43;1.20;;;22.20;99.90;;;;;;5010810;28;20166;-56
2022/09/09 11:33:15;;;;;;;4.10;1.15;;;22.70;99.90;;;;;;5011344;28;20649;-56
2022/09/09 11:36:00;;;;;;;2.95;1.05;;;24.50;99.90;;;;;;5014635;28;20170;-56
2022/09/09 11:38:40;;;;;;;2.70;0.88;;;25.00;99.90;;;;;;5014512;28;20371;-56
2022/09/09 11:41:09;;;;;;;1.85;0.90;;;26.10;99.90;;;;;;5014308;28;20218;-57
2022/09/09 11:43:52;;;;;;;5.03;0.85;;;26.20;99.90;;;;;;5014709;28;20183;-56
2022/09/09 11:46:22;;;;;;;2.20;1.20;;;25.50;99.90;;;;;;5014410;28;20334;-57
2022/09/09 11:49:02;;;;;;;4.35;1.00;;;25.30;99.90;;;;;;5014323;28;20611;-55
2022/09/09 11:51:30;;;;;;;2.72;1.10;;;24.20;99.90;;;;;;5014294;28;20380;-56
2022/09/09 11:54:01;;;;;;;5.22;1.33;;;23.70;99.90;;;;;;5014310;28;20162;-55
2022/09/09 11:56:31;;;;;;;2.22;1.00;;;23.60;99.90;;;;;;5014399;28;20175;-56
2022/09/09 11:59:05;;;;;;;3.90;1.30;;;23.60;99.90;;;;;;5014176;28;20253;-55
2022/09/09 12:01:42;;;;;;;3.72;1.30;;;23.40;99.90;;;;;;5013981;28;20179;-56
2022/09/09 12:04:28;;;;;;;4.72;1.52;;;24.00;99.90;;;;;;5013913;28;20664;-56
2022/09/09 12:07:02;;;;;;;5.15;1.40;;;25.30;99.90;;;;;;5013998;28;20217;-56
2022/09/09 12:09:27;;;;;;;5.68;1.38;;;25.20;99.90;;;;;;5014211;28;20209;-56
2022/09/09 12:12:05;;;;;;;4.88;1.60;;;25.20;99.90;;;;;;5013743;28;20182;-56
2022/09/09 12:14:59;;;;;;;5.50;2.10;;;24.80;99.90;;;;;;5013536;28;20537;-56
2022/09/09 12:17:28;;;;;;;4.68;1.70;;;24.10;99.90;;;;;;5013646;28;20217;-56
2022/09/09 12:20:14;;;;;;;5.07;1.42;;;23.40;99.90;;;;;;5013606;28;20225;-56
2022/09/09 12:22:49;;;;;;;4.10;1.30;;;22.80;99.90;;;;;;5013598;28;20163;-56
2022/09/09 12:25:23;;;;;;;4.53;1.35;;;22.30;99.90;;;;;;5013608;28;20170;-56
2022/09/09 12:28:17;;;;;;;6.32;1.63;;;22.10;99.90;;;;;;5013586;28;20167;-56
2022/09/09 12:31:10;;;;;;;5.57;1.17;;;22.10;99.90;;;;;;5009218;28;20249;-56
2022/09/09 12:33:43;;;;;;;2.10;0.70;;;21.30;99.90;;;;;;5013475;28;20202;-56
2022/09/09 12:36:19;;;;;;;2.15;0.75;;;21.70;99.90;;;;;;5013567;28;20174;-57
2022/09/09 12:38:45;;;;;;;6.88;1.27;;;21.50;99.90;;;;;;5013453;28;20315;-56
2022/09/09 12:41:25;;;;;;;3.63;1.00;;;21.20;99.90;;;;;;5013373;28;20218;-57
2022/09/09 12:43:51;;;;;;;1.58;0.68;;;20.60;99.90;;;;;;5013414;28;20249;-56
2022/09/09 12:46:36;;;;;;;2.47;0.70;;;20.30;99.90;;;;;;5012572;28;20171;-56
2022/09/09 12:49:03;;;;;;;3.25;0.90;;;19.90;99.90;;;;;;5013442;28;20265;-56
2022/09/09 12:51:32;;;;;;;2.40;0.88;;;19.10;99.90;;;;;;5013369;28;20183;-56
2022/09/09 12:53:59;;;;;;;4.80;1.00;;;19.20;99.90;;;;;;5013121;28;20700;-56
2022/09/09 12:56:30;;;;;;;4.32;1.13;;;19.20;99.90;;;;;;5013152;28;20173;-56
2022/09/09 12:58:58;;;;;;;4.72;1.20;;;19.20;99.90;;;;;;5012999;28;20756;-57
2022/09/09 13:01:26;;;;;;;5.57;1.42;;;19.50;99.90;;;;;;5015883;28;20605;-57
2022/09/09 13:03:52;;;;;;;5.15;1.17;;;19.70;99.90;;;;;;5013088;28;20282;-56
2022/09/09 13:06:25;;;;;;;6.68;1.40;;;19.30;99.90;;;;;;5012935;28;20170;-57
2022/09/09 13:08:56;;;;;;;3.95;1.70;;;19.60;99.90;;;;;;5012796;28;20203;-56
2022/09/09 13:11:46;;;;;;;8.13;1.90;;;19.50;99.90;;;;;;5012899;28;20272;-55
2022/09/09 13:14:18;;;;;;;7.45;1.90;;;19.50;99.90;;;;;;5012499;28;20261;-56
2022/09/09 13:16:58;;;;;;;6.28;2.00;;;19.20;99.90;;;;;;5012801;28;20699;-57